Farmland, Indiana
Current Conditions -  °F | °C
As of 10:53 PM on Tuesday 25 Nov 2014 (Local Time) from KMIE Reporting Station
Overcast Overcast  
Wind Chill: 28°   Ceiling: 1200
Heat Index: 28°   Visibility: 10mi
Dew Point: 23°   Wind: 3mph
Humidity: 81%   Direction: 320°NW
Pressure: 30.19"   Gusts: NA
Location:  40.19°N, 85.13°W
Report Text: KMIE 260353Z AUTO 32003KT 10SM OVC012 M02/M05 A3019 RMK AO2 SLP229 T10221050
Loading
Personal Weather Stations






























Interactive Weather Map New forecast layout! Learn more

10-Day Weather Forecast

Advertisements
Track Severe Weather on mobile